Navigator Spirit — C6WL4 — position and weather

sailwx.info

Track history (hours):
 
Tides and Currents Weather Stations Pressure Air Temp Water Temp Dewpoint Dewpoint Depression Visibility Wind Speed Wind Dir Waves Ship Positions

Navigator Spirit

Last reported at 2017-Jun-14 06:16 UTC. Time now 2017-Jun-23 01:58 UTC.
Position N 29°21' W 094°46'.
Warning: this ship's position is 8 days out of date.

Length 241 m; draft 8.8 m.

Type: Tanker. MMSI: 309198000.

Date/timePositionNaut miles runAvg speedWind from/ knotsBaromVisibWave heightAir tempDewpointWater temp
2017-Jun-14 06:16N 29°21' W 094°46'311.3
2017-Jun-14 06:00N 29°22' W 094°49'4 7.6
2017-Jun-14 05:30N 29°23' W 094°53'1 0.0
2017-Jun-12 21:35N 29°22' W 094°53'0 0.0
2017-Jun-12 21:30N 29°22' W 094°53'0 0.1
2017-Jun-12 21:00N 29°22' W 094°53'1 2.8
2017-Jun-12 20:30N 29°23' W 094°52'5 9.1
2017-Jun-12 20:00N 29°21' W 094°47'  
2017-Jun-06 13:41N 29°21' W 094°43'210.2
2017-Jun-06 13:28N 29°21' W 094°46'5 9.9
2017-Jun-06 12:55N 29°25' W 094°49'410.7
2017-Jun-06 12:30N 29°29' W 094°51'510.7
2017-Jun-06 12:00N 29°33' W 094°55'510.8
2017-Jun-06 11:30N 29°38' W 094°58'5 9.1
2017-Jun-06 11:00N 29°42' W 095°00'3 6.7
2017-Jun-06 10:30N 29°44' W 095°03'2 4.9
2017-Jun-06 10:00N 29°45' W 095°06'2 3.3
2017-Jun-06 09:30N 29°44' W 095°08'0 0.0
2017-Jun-06 08:16N 29°44' W 095°08'0 0.0
2017-Jun-06 07:25N 29°44' W 095°08'  
Track history (hours):
 
Tides and Currents Weather Stations Pressure Air Temp Water Temp Dewpoint Dewpoint Depression Visibility Wind Speed Wind Dir Waves Ship Positions

Navigator Spirit

Last reported at 2017-Jun-14 06:16 UTC. Time now 2017-Jun-23 01:58 UTC.
Position N 29°21' W 094°46'.
Warning: this ship's position is 8 days out of date.

Length 241 m; draft 8.8 m.

Type: Tanker. MMSI: 309198000.

Date/timePositionNaut miles runAvg speedWind from/ knotsBaromVisibWave heightAir tempDewpointWater temp
2017-Jun-14 06:16N 29°21' W 094°46'311.3
2017-Jun-14 06:00N 29°22' W 094°49'4 7.6
2017-Jun-14 05:30N 29°23' W 094°53'1 0.0
2017-Jun-12 21:35N 29°22' W 094°53'0 0.0
2017-Jun-12 21:30N 29°22' W 094°53'0 0.1
2017-Jun-12 21:00N 29°22' W 094°53'1 2.8
2017-Jun-12 20:30N 29°23' W 094°52'5 9.1
2017-Jun-12 20:00N 29°21' W 094°47'  
2017-Jun-06 13:41N 29°21' W 094°43'210.2
2017-Jun-06 13:28N 29°21' W 094°46'5 9.9
2017-Jun-06 12:55N 29°25' W 094°49'410.7
2017-Jun-06 12:30N 29°29' W 094°51'510.7
2017-Jun-06 12:00N 29°33' W 094°55'510.8
2017-Jun-06 11:30N 29°38' W 094°58'5 9.1
2017-Jun-06 11:00N 29°42' W 095°00'3 6.7
2017-Jun-06 10:30N 29°44' W 095°03'2 4.9
2017-Jun-06 10:00N 29°45' W 095°06'2 3.3
2017-Jun-06 09:30N 29°44' W 095°08'0 0.0
2017-Jun-06 08:16N 29°44' W 095°08'0 0.0
2017-Jun-06 07:25N 29°44' W 095°08'  

Dump ship's entire track history